createdAt,value
2022-08-03T00:00:51.745Z,94029.66
2022-08-03T00:01:53.251Z,94027.94
2022-08-03T00:02:54.758Z,94029.72
2022-08-03T00:03:56.254Z,94028.28
2022-08-03T00:04:57.748Z,94028.09
2022-08-03T00:06:04.052Z,94029.72
2022-08-03T00:07:06.545Z,94019.00
2022-08-03T00:08:07.966Z,94029.97
2022-08-03T00:09:10.814Z,94028.16
2022-08-03T00:10:13.415Z,94023.16
2022-08-03T00:11:16.222Z,94017.22
2022-08-03T00:12:18.076Z,94028.25
2022-08-03T00:13:19.842Z,94025.25
2022-08-03T00:14:21.283Z,94026.00
2022-08-03T00:15:22.936Z,94021.38
2022-08-03T00:16:24.551Z,94021.06
2022-08-03T00:17:26.015Z,94016.19
2022-08-03T00:18:27.516Z,94021.69
2022-08-03T00:19:29.002Z,94021.69
2022-08-03T00:20:30.436Z,94019.25
2022-08-03T00:21:31.964Z,94022.75
2022-08-03T00:22:35.044Z,94022.00
2022-08-03T00:23:52.486Z,94025.97
2022-08-03T00:24:54.271Z,94019.66
2022-08-03T00:25:55.822Z,94010.50
2022-08-03T00:26:58.603Z,94019.56
2022-08-03T00:28:00.101Z,94011.53
2022-08-03T00:29:01.532Z,94014.06
2022-08-03T00:30:03.849Z,94012.69
2022-08-03T00:31:05.274Z,94013.81
2022-08-03T00:32:08.691Z,94009.38
2022-08-03T00:33:13.520Z,94012.75
2022-08-03T00:34:16.055Z,94016.25
2022-08-03T00:35:27.345Z,94009.59
2022-08-03T00:36:38.078Z,94017.31
2022-08-03T00:37:41.681Z,94020.78
2022-08-03T00:38:43.338Z,94014.09
2022-08-03T00:39:44.777Z,94012.72
2022-08-03T00:40:46.347Z,94012.84
2022-08-03T00:41:47.772Z,94012.34
2022-08-03T00:42:53.807Z,94015.03
2022-08-03T00:43:55.250Z,94012.94
2022-08-03T00:44:56.711Z,94010.84
2022-08-03T00:45:58.164Z,94016.41
2022-08-03T00:46:59.623Z,94014.72
2022-08-03T00:48:02.444Z,94009.09
2022-08-03T00:49:04.022Z,94011.22
2022-08-03T00:50:06.453Z,94017.88
2022-08-03T00:51:08.140Z,94009.75
2022-08-03T00:52:11.203Z,94017.25
2022-08-03T00:53:12.793Z,94016.41
2022-08-03T00:54:14.949Z,94016.97
2022-08-03T00:55:16.958Z,94015.13
2022-08-03T00:56:18.661Z,94021.38
2022-08-03T00:57:20.827Z,94012.84
2022-08-03T00:58:23.947Z,94021.28
2022-08-03T00:59:25.380Z,94018.38
2022-08-03T01:00:27.758Z,94017.13
2022-08-03T01:01:32.318Z,94017.72
2022-08-03T01:02:34.273Z,94024.53
2022-08-03T01:03:35.751Z,94018.22
2022-08-03T01:04:37.188Z,94016.66
2022-08-03T01:05:55.788Z,94018.16
2022-08-03T01:07:03.502Z,94008.59
2022-08-03T01:08:12.069Z,94016.50
2022-08-03T01:09:22.126Z,94014.94
2022-08-03T01:10:28.808Z,94014.13
2022-08-03T01:11:59.719Z,94014.75
2022-08-03T01:13:59.203Z,94012.69
2022-08-03T01:14:38.480Z,94007.81
2022-08-03T01:15:46.262Z,94008.63
2022-08-03T01:16:55.998Z,94009.19
2022-08-03T01:18:02.947Z,94008.16
2022-08-03T01:19:24.183Z,94013.16
2022-08-03T01:20:29.630Z,94007.88
2022-08-03T01:21:33.996Z,94003.59
2022-08-03T01:23:23.610Z,93994.13
2022-08-03T01:24:37.710Z,94007.16
2022-08-03T01:25:59.672Z,94002.53
2022-08-03T01:27:08.621Z,94001.91
2022-08-03T01:28:25.336Z,94002.00
2022-08-03T01:29:46.416Z,93997.19
2022-08-03T01:30:49.797Z,93997.66
2022-08-03T01:32:58.715Z,93999.31
2022-08-03T01:33:22.783Z,93993.47
2022-08-03T01:34:28.138Z,93993.69
2022-08-03T01:35:38.459Z,94002.94
2022-08-03T01:36:44.669Z,93991.59
2022-08-03T01:37:52.024Z,94000.59
2022-08-03T01:38:56.061Z,93999.00
2022-08-03T01:40:01.006Z,93995.31
2022-08-03T01:41:05.853Z,93997.13
2022-08-03T01:42:10.197Z,93993.97
2022-08-03T01:44:26.218Z,93988.59
2022-08-03T01:44:42.392Z,93984.59
2022-08-03T01:45:44.613Z,93994.19
2022-08-03T01:46:48.855Z,93988.34
2022-08-03T01:47:52.732Z,93996.19
2022-08-03T01:48:56.244Z,93993.63
2022-08-03T01:50:00.528Z,93994.69
2022-08-03T01:51:02.665Z,93990.44
2022-08-03T01:52:05.633Z,93991.84
2022-08-03T01:53:08.912Z,93982.84
2022-08-03T01:54:12.570Z,93985.56
2022-08-03T01:55:19.061Z,93982.41
2022-08-03T01:56:24.225Z,93982.72
2022-08-03T01:57:28.731Z,93979.00
2022-08-03T01:58:32.165Z,93980.84
2022-08-03T01:59:35.457Z,93981.69
2022-08-03T02:00:40.213Z,93982.72
2022-08-03T02:02:19.566Z,93976.56
2022-08-03T02:03:06.978Z,93979.22
2022-08-03T02:04:09.684Z,93976.56
2022-08-03T02:05:12.618Z,93977.94
2022-08-03T02:07:01.334Z,93977.66
2022-08-03T02:07:40.457Z,93983.28
2022-08-03T02:08:44.688Z,93977.13
2022-08-03T02:09:51.504Z,93980.84
2022-08-03T02:10:57.008Z,93980.13
2022-08-03T02:11:59.136Z,93982.81
2022-08-03T02:13:01.919Z,93979.84
2022-08-03T02:14:05.830Z,93979.63
2022-08-03T02:15:09.591Z,93977.97
2022-08-03T02:16:14.151Z,93968.53
2022-08-03T02:17:16.373Z,93979.81
2022-08-03T02:18:20.079Z,93979.16
2022-08-03T02:19:24.817Z,93976.44
2022-08-03T02:20:28.379Z,93981.13
2022-08-03T02:21:57.042Z,93985.50
2022-08-03T02:22:55.131Z,93979.19
2022-08-03T02:23:56.675Z,93974.63
2022-08-03T02:24:58.132Z,93978.94
2022-08-03T02:26:04.557Z,93975.69
2022-08-03T02:27:13.673Z,93974.91
2022-08-03T02:28:18.121Z,93970.34
2022-08-03T02:29:39.492Z,93976.19
2022-08-03T02:30:45.831Z,93975.88
2022-08-03T02:31:58.152Z,93974.50
2022-08-03T02:33:01.617Z,93982.75
2022-08-03T02:34:08.287Z,93978.22
2022-08-03T02:35:13.016Z,93979.84
2022-08-03T02:36:15.949Z,93969.94
2022-08-03T02:37:19.194Z,93971.22
2022-08-03T02:38:25.998Z,93972.53
2022-08-03T02:39:31.180Z,93965.81
2022-08-03T02:40:33.655Z,93967.53
2022-08-03T02:41:37.985Z,93969.38
2022-08-03T02:42:44.276Z,93967.53
2022-08-03T02:44:06.044Z,93975.28
2022-08-03T02:45:11.688Z,93967.75
2022-08-03T02:46:17.206Z,93971.22
2022-08-03T02:47:20.692Z,93976.28
2022-08-03T02:48:26.503Z,93974.50
2022-08-03T02:49:42.153Z,93970.81
2022-08-03T02:50:54.024Z,93974.94
2022-08-03T02:51:57.696Z,93968.94
2022-08-03T02:53:01.208Z,93968.72
2022-08-03T02:54:04.837Z,93966.84
2022-08-03T02:55:10.159Z,93963.69
2022-08-03T02:56:12.630Z,93969.84
2022-08-03T02:57:15.136Z,93968.78
2022-08-03T02:58:19.387Z,93966.69
2022-08-03T02:59:22.283Z,93970.09
2022-08-03T03:00:27.344Z,93966.06
2022-08-03T03:01:31.465Z,93966.06
2022-08-03T03:02:34.864Z,93968.72
2022-08-03T03:03:44.829Z,93959.78
2022-08-03T03:05:51.831Z,93962.69
2022-08-03T03:06:13.337Z,93963.34
2022-08-03T03:07:17.585Z,93962.31
2022-08-03T03:08:26.770Z,93960.03
2022-08-03T03:09:40.233Z,93961.97
2022-08-03T03:10:44.288Z,93957.31
2022-08-03T03:11:46.278Z,93954.91
2022-08-03T03:12:50.142Z,93965.47
2022-08-03T03:13:52.746Z,93953.88
2022-08-03T03:14:54.229Z,93950.50
2022-08-03T03:15:57.212Z,93956.53
2022-08-03T03:16:59.808Z,93959.22
2022-08-03T03:18:03.149Z,93961.09
2022-08-03T03:19:05.316Z,93954.13
2022-08-03T03:20:08.752Z,93962.38
2022-08-03T03:21:10.725Z,93964.22
2022-08-03T03:22:13.076Z,93959.94
2022-08-03T03:23:15.318Z,93963.41
2022-08-03T03:24:17.282Z,93967.72
2022-08-03T03:25:20.097Z,93965.63
2022-08-03T03:26:21.800Z,93961.09
2022-08-03T03:27:23.445Z,93964.91
2022-08-03T03:28:25.394Z,93971.06
2022-08-03T03:29:27.765Z,93967.22
2022-08-03T03:30:29.882Z,93958.75
2022-08-03T03:31:31.863Z,93967.91
2022-08-03T03:32:33.578Z,93965.81
2022-08-03T03:33:37.824Z,93964.41
2022-08-03T03:34:39.584Z,93966.28
2022-08-03T03:35:42.551Z,93953.19
2022-08-03T03:36:44.029Z,93959.53
2022-08-03T03:37:45.548Z,93961.75
2022-08-03T03:38:47.040Z,93964.41
2022-08-03T03:39:48.513Z,93956.19
2022-08-03T03:40:50.125Z,93959.31
2022-08-03T03:41:52.012Z,93962.94
2022-08-03T03:42:53.588Z,93956.22
2022-08-03T03:43:55.519Z,93959.84
2022-08-03T03:44:57.046Z,93959.16
2022-08-03T03:46:01.779Z,93955.44
2022-08-03T03:47:03.477Z,93970.91
2022-08-03T03:48:05.977Z,93959.63
2022-08-03T03:49:09.124Z,93967.88
2022-08-03T03:50:10.636Z,93968.59
2022-08-03T03:51:12.717Z,93968.00
2022-08-03T03:52:16.806Z,93965.00
2022-08-03T03:53:18.515Z,93964.53
2022-08-03T03:54:20.022Z,93964.53
2022-08-03T03:55:21.492Z,93961.38
2022-08-03T03:56:23.335Z,93966.25
2022-08-03T03:57:24.862Z,93963.13
2022-08-03T03:58:26.357Z,93962.91
2022-08-03T03:59:27.855Z,93969.03
2022-08-03T04:00:29.732Z,93966.03
2022-08-03T04:01:31.614Z,93964.38
2022-08-03T04:02:33.325Z,93973.13
2022-08-03T04:03:35.741Z,93968.84
2022-08-03T04:04:39.076Z,93970.13
2022-08-03T04:05:44.241Z,93966.88
2022-08-03T04:06:47.829Z,93967.59
2022-08-03T04:08:00.820Z,93966.19
2022-08-03T04:09:03.214Z,93965.59
2022-08-03T04:10:14.399Z,93971.28
2022-08-03T04:11:20.250Z,93965.84
2022-08-03T04:12:32.331Z,93969.22
2022-08-03T04:13:37.685Z,93973.38
2022-08-03T04:14:40.389Z,93970.94
2022-08-03T04:15:42.758Z,93969.31
2022-08-03T04:16:48.981Z,93964.56
2022-08-03T04:17:53.098Z,93969.91
2022-08-03T04:19:00.593Z,93975.34
2022-08-03T04:20:04.751Z,93972.69
2022-08-03T04:21:11.154Z,93972.47
2022-08-03T04:22:17.745Z,93977.34
2022-08-03T04:23:22.189Z,93983.00
2022-08-03T04:24:26.559Z,93976.16
2022-08-03T04:25:32.217Z,93976.75
2022-08-03T04:26:36.319Z,93978.59
2022-08-03T04:27:41.428Z,93975.94
2022-08-03T04:28:44.732Z,93977.31
2022-08-03T04:29:49.246Z,93976.88
2022-08-03T04:30:53.582Z,93982.09
2022-08-03T04:31:59.370Z,93982.34
2022-08-03T04:33:02.307Z,93983.72
2022-08-03T04:34:04.690Z,93979.09
2022-08-03T04:35:08.631Z,93982.34
2022-08-03T04:36:14.847Z,93982.56
2022-08-03T04:37:26.135Z,93981.38
2022-08-03T04:38:29.360Z,93985.91
2022-08-03T04:39:32.631Z,93993.13
2022-08-03T04:40:36.244Z,93993.13
2022-08-03T04:42:07.284Z,93988.38
2022-08-03T04:43:02.616Z,93986.63
2022-08-03T04:44:05.694Z,93987.88
2022-08-03T04:45:11.492Z,93983.81
2022-08-03T04:46:14.028Z,93987.53
2022-08-03T04:47:16.315Z,93988.78
2022-08-03T04:48:19.808Z,93988.22
2022-08-03T04:49:21.776Z,93988.22
2022-08-03T04:50:25.302Z,93991.09
2022-08-03T04:51:27.626Z,93995.16
2022-08-03T04:52:29.353Z,93988.56
2022-08-03T04:53:30.888Z,93994.22
2022-08-03T04:54:39.512Z,93990.28
2022-08-03T04:55:40.938Z,93984.22
2022-08-03T04:56:42.710Z,93994.44
2022-08-03T04:57:44.146Z,93991.88
2022-08-03T04:58:45.623Z,93996.28
2022-08-03T04:59:47.091Z,93997.28
2022-08-03T05:00:48.532Z,93996.53
2022-08-03T05:01:50.943Z,93993.03
2022-08-03T05:02:52.956Z,93994.09
2022-08-03T05:03:54.442Z,93993.28
2022-08-03T05:04:55.893Z,93996.88
2022-08-03T05:06:09.801Z,93996.63
2022-08-03T05:07:13.197Z,93990.03
2022-08-03T05:08:14.703Z,93992.63
2022-08-03T05:09:16.182Z,93999.56
2022-08-03T05:10:37.657Z,93999.44
2022-08-03T05:11:39.094Z,94000.50
2022-08-03T05:12:40.715Z,94000.50
2022-08-03T05:13:42.195Z,93996.22
2022-08-03T05:14:43.637Z,93997.81
2022-08-03T05:15:45.138Z,94006.50
2022-08-03T05:16:46.601Z,94000.69
2022-08-03T05:17:48.074Z,94000.06
2022-08-03T05:18:49.590Z,93997.59
2022-08-03T05:19:51.046Z,94004.13
2022-08-03T05:20:52.480Z,94005.25
2022-08-03T05:21:55.273Z,94004.28
2022-08-03T05:22:56.854Z,94007.03
2022-08-03T05:23:58.326Z,93999.28
2022-08-03T05:25:01.122Z,94002.44
2022-08-03T05:26:02.607Z,94009.88
2022-08-03T05:27:04.134Z,94005.59
2022-08-03T05:28:05.609Z,94004.84
2022-08-03T05:29:07.073Z,94006.19
2022-08-03T05:30:30.410Z,94005.78
2022-08-03T05:31:31.035Z,93999.13
2022-08-03T05:32:32.478Z,94002.06
2022-08-03T05:33:33.952Z,94002.63
2022-08-03T05:34:35.431Z,94004.47
2022-08-03T05:35:55.881Z,94007.41
2022-08-03T05:37:00.324Z,94009.13
2022-08-03T05:38:02.218Z,94006.84
2022-08-03T05:39:03.829Z,94002.84
2022-08-03T05:40:06.531Z,94006.84
2022-08-03T05:41:21.124Z,94005.94
2022-08-03T05:42:24.572Z,94010.25
2022-08-03T05:43:26.008Z,94006.38
2022-08-03T05:44:27.842Z,94002.63
2022-08-03T05:45:29.312Z,94007.56
2022-08-03T05:46:30.819Z,94003.13
2022-08-03T05:47:32.267Z,94007.72
2022-08-03T05:48:33.817Z,94005.34
2022-08-03T05:49:35.442Z,94009.81
2022-08-03T05:50:41.097Z,94006.84
2022-08-03T05:51:44.283Z,94005.88
2022-08-03T05:52:47.561Z,94011.16
2022-08-03T05:53:49.610Z,94008.25
2022-08-03T05:54:56.356Z,93999.94
2022-08-03T05:56:03.503Z,94007.88
2022-08-03T05:57:16.255Z,94010.81
2022-08-03T05:58:18.004Z,94007.47
2022-08-03T05:59:37.532Z,94004.97
2022-08-03T06:00:39.820Z,94006.25
2022-08-03T06:01:41.359Z,94005.19
2022-08-03T06:02:42.904Z,94013.00
2022-08-03T06:03:44.884Z,94007.00
2022-08-03T06:04:46.339Z,94015.59
2022-08-03T06:05:59.943Z,94009.78
2022-08-03T06:07:01.668Z,94010.00
2022-08-03T06:08:05.150Z,94003.41
2022-08-03T06:09:06.623Z,94005.56
2022-08-03T06:10:34.492Z,94010.78
2022-08-03T06:11:30.276Z,94009.25
2022-08-03T06:12:31.810Z,94008.72
2022-08-03T06:13:33.365Z,94004.69
2022-08-03T06:14:34.810Z,94004.47
2022-08-03T06:15:36.251Z,94001.41
2022-08-03T06:16:37.720Z,94011.50
2022-08-03T06:17:46.078Z,94006.28
2022-08-03T06:18:47.528Z,94007.97
2022-08-03T06:19:51.434Z,94005.16
2022-08-03T06:20:53.982Z,94007.56
2022-08-03T06:21:56.605Z,94008.59
2022-08-03T06:23:00.308Z,94005.38
2022-08-03T06:24:04.383Z,94012.59
2022-08-03T06:25:12.848Z,94013.41
2022-08-03T06:26:14.529Z,94012.66
2022-08-03T06:27:16.500Z,94013.81
2022-08-03T06:28:52.297Z,94017.00
2022-08-03T06:29:39.439Z,94014.38
2022-08-03T06:30:41.174Z,94015.97
2022-08-03T06:31:42.648Z,94018.81
2022-08-03T06:32:44.367Z,94019.84
2022-08-03T06:34:32.990Z,94018.88
2022-08-03T06:35:15.150Z,94012.00
2022-08-03T06:36:16.658Z,94017.56
2022-08-03T06:37:18.102Z,94024.03
2022-08-03T06:38:19.549Z,94015.34
2022-08-03T06:39:23.476Z,94023.75
2022-08-03T06:40:25.456Z,94021.38
2022-08-03T06:41:27.491Z,94007.34
2022-08-03T06:42:28.958Z,94017.84
2022-08-03T06:43:30.398Z,94022.75
2022-08-03T06:44:37.397Z,94018.69
2022-08-03T06:45:38.845Z,94026.00
2022-08-03T06:46:40.416Z,94026.22
2022-08-03T06:47:41.873Z,94024.28
2022-08-03T06:48:46.360Z,94024.50
2022-08-03T06:50:16.233Z,94026.88
2022-08-03T06:51:09.133Z,94021.69
2022-08-03T06:52:10.565Z,94030.44
2022-08-03T06:53:21.203Z,94023.97
2022-08-03T06:54:24.326Z,94026.03
2022-08-03T06:55:25.853Z,94023.38
2022-08-03T06:56:27.279Z,94022.75
2022-08-03T06:57:28.755Z,94026.63
2022-08-03T06:58:30.214Z,94027.66
2022-08-03T07:00:09.354Z,94033.09
2022-08-03T07:00:53.372Z,94028.47
2022-08-03T07:01:54.862Z,94020.22
2022-08-03T07:02:58.405Z,94021.91
2022-08-03T07:04:00.147Z,94025.84
2022-08-03T07:05:01.598Z,94030.94
2022-08-03T07:06:03.487Z,94023.28
2022-08-03T07:07:05.018Z,94025.50
2022-08-03T07:08:06.505Z,94033.19
2022-08-03T07:09:07.943Z,94033.47
2022-08-03T07:10:10.861Z,94032.53
2022-08-03T07:11:12.313Z,94031.81
2022-08-03T07:12:13.813Z,94031.91
2022-08-03T07:13:15.272Z,94032.63
2022-08-03T07:14:16.761Z,94031.03
2022-08-03T07:15:20.175Z,94031.41
2022-08-03T07:16:21.789Z,94035.69
2022-08-03T07:17:23.243Z,94027.84
2022-08-03T07:18:29.621Z,94027.56
2022-08-03T07:19:31.482Z,94032.56
2022-08-03T07:20:33.214Z,94031.88
2022-08-03T07:21:34.671Z,94031.22
2022-08-03T07:22:36.129Z,94029.91
2022-08-03T07:23:37.581Z,94030.22
2022-08-03T07:24:39.043Z,94035.94
2022-08-03T07:25:41.842Z,94027.78
2022-08-03T07:26:43.310Z,94029.97
2022-08-03T07:27:51.679Z,94028.69
2022-08-03T07:28:53.322Z,94032.16
2022-08-03T07:29:54.829Z,94033.38
2022-08-03T07:30:56.346Z,94034.75
2022-08-03T07:31:58.063Z,94028.88
2022-08-03T07:32:59.599Z,94031.72
2022-08-03T07:34:01.078Z,94027.34
2022-08-03T07:35:03.047Z,94036.22
2022-08-03T07:36:10.331Z,94033.88
2022-08-03T07:37:11.799Z,94035.38
2022-08-03T07:38:13.240Z,94021.91
2022-08-03T07:39:17.880Z,94024.31
2022-08-03T07:40:19.692Z,94019.03
2022-08-03T07:41:22.469Z,94023.66
2022-08-03T07:42:23.914Z,94023.66
2022-08-03T07:43:25.393Z,94029.59
2022-08-03T07:44:26.852Z,94027.84
2022-08-03T07:45:29.529Z,94026.50
2022-08-03T07:46:30.985Z,94032.53
2022-08-03T07:47:35.530Z,94034.75
2022-08-03T07:48:37.522Z,94021.31
2022-08-03T07:49:40.422Z,94016.31
2022-08-03T07:50:41.920Z,94024.22
2022-08-03T07:51:43.422Z,94022.81
2022-08-03T07:52:44.947Z,94031.91
2022-08-03T07:53:48.028Z,94028.97
2022-08-03T07:54:49.835Z,94025.34
2022-08-03T07:55:51.345Z,94032.50
2022-08-03T07:56:54.131Z,94027.72
2022-08-03T07:58:03.638Z,94030.69
2022-08-03T07:59:05.109Z,94026.41
2022-08-03T08:00:14.132Z,94023.22
2022-08-03T08:01:15.596Z,94025.09
2022-08-03T08:02:17.351Z,94026.81
2022-08-03T08:03:19.297Z,94025.56
2022-08-03T08:04:20.734Z,94022.47
2022-08-03T08:05:22.179Z,94026.63
2022-08-03T08:06:23.630Z,94024.94
2022-08-03T08:07:25.109Z,94027.50
2022-08-03T08:08:26.758Z,94032.63
2022-08-03T08:09:28.261Z,94029.03
2022-08-03T08:10:31.175Z,94030.03
2022-08-03T08:11:34.860Z,94029.81
2022-08-03T08:12:41.587Z,94026.31
2022-08-03T08:13:43.049Z,94032.50
2022-08-03T08:14:44.499Z,94029.69
2022-08-03T08:15:45.962Z,94033.38
2022-08-03T08:16:48.742Z,94039.28
2022-08-03T08:17:52.205Z,94029.25
2022-08-03T08:18:53.699Z,94033.88
2022-08-03T08:19:55.146Z,94032.00
2022-08-03T08:20:56.741Z,94032.25
2022-08-03T08:22:02.418Z,94026.63
2022-08-03T08:23:32.591Z,94030.31
2022-08-03T08:24:27.792Z,94027.81
2022-08-03T08:25:30.414Z,94029.91
2022-08-03T08:26:31.895Z,94031.09
2022-08-03T08:28:30.890Z,94024.34
2022-08-03T08:28:56.003Z,94027.41
2022-08-03T08:30:00.610Z,94029.31
2022-08-03T08:31:06.312Z,94030.34
2022-08-03T08:32:07.757Z,94032.81
2022-08-03T08:33:15.722Z,94020.16
2022-08-03T08:34:25.095Z,94032.03
2022-08-03T08:35:26.541Z,94030.31
2022-08-03T08:36:28.057Z,94031.28
2022-08-03T08:37:29.492Z,94034.81
2022-08-03T08:38:30.925Z,94028.84
2022-08-03T08:39:32.361Z,94033.75
2022-08-03T08:40:34.018Z,94036.00
2022-08-03T08:41:35.514Z,94027.38
2022-08-03T08:42:37.544Z,94039.34
2022-08-03T08:43:39.029Z,94034.63
2022-08-03T08:44:41.842Z,94034.84
2022-08-03T08:45:44.826Z,94030.19
2022-08-03T08:46:47.506Z,94029.50
2022-08-03T08:47:51.766Z,94026.28
2022-08-03T08:48:54.857Z,94033.31
2022-08-03T08:50:09.801Z,94029.25
2022-08-03T08:51:12.741Z,94026.28
2022-08-03T08:52:25.153Z,94037.09
2022-08-03T08:53:35.667Z,94034.50
2022-08-03T08:54:39.437Z,94032.31
2022-08-03T08:55:58.545Z,94027.28
2022-08-03T08:57:06.665Z,94041.53
2022-08-03T08:58:21.469Z,94031.56
2022-08-03T08:59:24.038Z,94035.00
2022-08-03T09:00:26.804Z,94040.06
2022-08-03T09:01:28.635Z,94035.94
2022-08-03T09:02:30.945Z,94039.56
2022-08-03T09:03:33.019Z,94036.34
2022-08-03T09:04:34.653Z,94040.94
2022-08-03T09:05:55.311Z,94034.84
2022-08-03T09:07:17.987Z,94031.31
2022-08-03T09:08:19.193Z,94028.09
2022-08-03T09:10:00.367Z,94032.00
2022-08-03T09:10:42.066Z,94038.16
2022-08-03T09:12:01.003Z,94035.34
2022-08-03T09:13:05.014Z,94028.09
2022-08-03T09:14:07.032Z,94031.72
2022-08-03T09:15:21.485Z,94031.44
2022-08-03T09:16:24.224Z,94030.16
2022-08-03T09:17:39.310Z,94030.53
2022-08-03T09:18:42.245Z,94034.38
2022-08-03T09:20:03.970Z,94029.09
2022-08-03T09:21:33.884Z,94040.25
2022-08-03T09:22:36.137Z,94039.44
2022-08-03T09:24:01.475Z,94042.41
2022-08-03T09:26:29.250Z,94026.88
2022-08-03T09:27:42.106Z,94035.72
2022-08-03T09:28:58.111Z,94035.13
2022-08-03T09:30:01.937Z,94036.84
2022-08-03T09:31:03.397Z,94029.72
2022-08-03T09:32:06.514Z,94032.09
2022-08-03T09:33:09.614Z,94035.22
2022-08-03T09:34:12.973Z,94035.97
2022-08-03T09:35:14.765Z,94036.75
2022-08-03T09:36:36.311Z,94033.63
2022-08-03T09:38:12.787Z,94029.41
2022-08-03T09:39:01.003Z,94034.94
2022-08-03T09:40:02.681Z,94032.50
2022-08-03T09:41:17.703Z,94032.50
2022-08-03T09:42:23.752Z,94033.81
2022-08-03T09:43:25.642Z,94029.81
2022-08-03T09:44:34.045Z,94036.94
2022-08-03T09:45:36.257Z,94027.03
2022-08-03T09:46:51.099Z,94037.47
2022-08-03T09:47:53.993Z,94027.06
2022-08-03T09:49:11.473Z,94027.84
2022-08-03T09:50:13.590Z,94031.78
2022-08-03T09:52:30.226Z,94029.22
2022-08-03T09:52:50.210Z,94030.88
2022-08-03T09:53:57.231Z,94028.16
2022-08-03T09:55:01.952Z,94031.13
2022-08-03T09:56:35.118Z,94024.66
2022-08-03T09:57:27.341Z,94026.63
2022-08-03T09:58:30.313Z,94021.69
2022-08-03T09:59:33.537Z,94028.19
2022-08-03T10:00:53.017Z,94028.94
2022-08-03T10:01:55.714Z,94032.78
2022-08-03T10:03:04.159Z,94033.56
2022-08-03T10:04:05.702Z,94031.91
2022-08-03T10:05:09.619Z,94034.13
2022-08-03T10:06:18.292Z,94031.41
2022-08-03T10:07:21.276Z,94032.16
2022-08-03T10:08:23.198Z,94035.44
2022-08-03T10:09:24.628Z,94032.28
2022-08-03T10:10:29.896Z,94033.63
2022-08-03T10:11:40.877Z,94023.69
2022-08-03T10:12:44.393Z,94036.44
2022-08-03T10:13:47.550Z,94025.59
2022-08-03T10:14:49.010Z,94032.59
2022-08-03T10:16:21.865Z,94025.19
2022-08-03T10:17:12.783Z,94026.38
2022-08-03T10:18:15.749Z,94019.66
2022-08-03T10:19:17.535Z,94018.88
2022-08-03T10:20:19.205Z,94022.50
2022-08-03T10:21:21.337Z,94013.78
2022-08-03T10:22:23.994Z,94021.50
2022-08-03T10:23:26.179Z,94015.50
2022-08-03T10:24:30.079Z,94018.81
2022-08-03T10:25:34.922Z,94016.78
2022-08-03T10:26:38.855Z,94016.94
2022-08-03T10:27:53.085Z,94017.88
2022-08-03T10:28:59.283Z,94019.19
2022-08-03T10:30:02.195Z,94018.34
2022-08-03T10:31:05.306Z,94018.72
2022-08-03T10:32:13.667Z,94020.25
2022-08-03T10:33:49.582Z,94011.53
2022-08-03T10:34:44.379Z,94010.13
2022-08-03T10:35:47.461Z,94006.28
2022-08-03T10:36:49.733Z,94013.31
2022-08-03T10:37:56.403Z,94003.31
2022-08-03T10:39:00.781Z,93999.97
2022-08-03T10:40:03.333Z,94000.16
2022-08-03T10:41:06.404Z,93998.06
2022-08-03T10:42:18.769Z,94002.13
2022-08-03T10:43:25.542Z,94002.47
2022-08-03T10:44:33.164Z,94001.66
2022-08-03T10:45:39.069Z,94004.50
2022-08-03T10:46:45.013Z,94004.22
2022-08-03T10:47:48.268Z,94006.69
2022-08-03T10:48:52.070Z,93996.03
2022-08-03T10:49:53.673Z,94005.16
2022-08-03T10:50:55.598Z,94001.44
2022-08-03T10:51:57.264Z,94001.19
2022-08-03T10:53:02.045Z,94002.81
2022-08-03T10:54:05.564Z,94005.47
2022-08-03T10:55:31.914Z,94000.50
2022-08-03T10:56:48.034Z,93997.81
2022-08-03T10:57:58.295Z,94000.03
2022-08-03T10:59:00.163Z,94003.03
2022-08-03T11:00:06.508Z,93994.34
2022-08-03T11:01:09.606Z,93999.91
2022-08-03T11:02:11.546Z,93992.28
2022-08-03T11:03:13.881Z,94002.91
2022-08-03T11:04:18.264Z,93988.91
2022-08-03T11:05:26.992Z,93990.06
2022-08-03T11:06:28.767Z,93993.38
2022-08-03T11:07:39.184Z,93991.59
2022-08-03T11:08:41.017Z,93994.84
2022-08-03T11:09:43.484Z,93992.97
2022-08-03T11:10:45.177Z,93996.56
2022-08-03T11:11:48.443Z,93992.06
2022-08-03T11:12:50.153Z,93991.53
2022-08-03T11:14:00.735Z,93996.97
2022-08-03T11:15:05.498Z,93995.44
2022-08-03T11:16:22.030Z,93993.97
2022-08-03T11:17:24.074Z,93991.88
2022-08-03T11:18:26.979Z,93990.44
2022-08-03T11:19:57.845Z,93990.44
2022-08-03T11:21:00.539Z,93985.28
2022-08-03T11:22:02.096Z,93982.84
2022-08-03T11:23:03.653Z,93980.38
2022-08-03T11:24:06.761Z,93984.38
2022-08-03T11:25:08.712Z,93982.13
2022-08-03T11:26:33.553Z,93985.03
2022-08-03T11:27:36.763Z,93986.81
2022-08-03T11:28:40.035Z,93982.00
2022-08-03T11:29:55.182Z,93991.56
2022-08-03T11:30:56.704Z,93989.75
2022-08-03T11:31:58.499Z,93992.16
2022-08-03T11:33:00.387Z,93984.25
2022-08-03T11:34:05.514Z,93982.38
2022-08-03T11:35:09.145Z,93981.84
2022-08-03T11:36:10.612Z,93980.91
2022-08-03T11:37:22.639Z,93979.44
2022-08-03T11:38:24.571Z,93981.22
2022-08-03T11:39:38.146Z,93979.56
2022-08-03T11:40:42.929Z,93987.09
2022-08-03T11:41:45.112Z,93980.50
2022-08-03T11:42:46.926Z,93981.31
2022-08-03T11:43:48.356Z,93989.66
2022-08-03T11:44:50.544Z,93986.44
2022-08-03T11:45:58.575Z,93984.22
2022-08-03T11:47:00.697Z,93981.56
2022-08-03T11:48:14.313Z,93978.88
2022-08-03T11:49:20.908Z,93983.09
2022-08-03T11:50:24.192Z,93976.72
2022-08-03T11:51:27.609Z,93977.97
2022-08-03T11:52:35.398Z,93979.41
2022-08-03T11:53:42.201Z,93976.91
2022-08-03T11:54:43.866Z,93980.00
2022-08-03T11:55:47.453Z,93980.09
2022-08-03T11:56:50.222Z,93973.03
2022-08-03T11:59:10.743Z,93974.38
2022-08-03T11:59:20.749Z,93977.28
2022-08-03T12:00:25.979Z,93969.81
2022-08-03T12:01:27.631Z,93967.16
2022-08-03T12:02:29.106Z,93963.50
2022-08-03T12:03:33.130Z,93966.16
2022-08-03T12:04:49.757Z,93966.78
2022-08-03T12:05:54.813Z,93966.69
2022-08-03T12:06:59.923Z,93970.06
2022-08-03T12:08:03.495Z,93973.53
2022-08-03T12:09:15.571Z,93959.16
2022-08-03T12:10:17.257Z,93960.22
2022-08-03T12:11:18.720Z,93965.59
2022-08-03T12:12:20.226Z,93960.16
2022-08-03T12:14:44.636Z,93964.22
2022-08-03T12:14:52.127Z,93968.09
2022-08-03T12:15:55.470Z,93960.06
2022-08-03T12:16:57.012Z,93961.13
2022-08-03T12:17:58.527Z,93960.94
2022-08-03T12:19:01.380Z,93956.63
2022-08-03T12:20:05.343Z,93955.94
2022-08-03T12:21:09.870Z,93958.34
2022-08-03T12:22:11.370Z,93961.34
2022-08-03T12:23:13.137Z,93957.56
2022-08-03T12:24:14.837Z,93961.09
2022-08-03T12:25:38.581Z,93959.34
2022-08-03T12:26:44.764Z,93959.56
2022-08-03T12:28:36.972Z,93954.03
2022-08-03T12:29:31.250Z,93964.69
2022-08-03T12:30:32.962Z,93960.16
2022-08-03T12:31:36.044Z,93956.16
2022-08-03T12:32:37.563Z,93953.72
2022-08-03T12:33:56.261Z,93958.25
2022-08-03T12:35:00.036Z,93955.00
2022-08-03T12:36:06.234Z,93957.88
2022-08-03T12:37:28.653Z,93959.69
2022-08-03T12:38:30.772Z,93958.09
2022-08-03T12:39:32.284Z,93954.75
2022-08-03T12:40:33.892Z,93955.38
2022-08-03T12:41:37.295Z,93948.22
2022-08-03T12:42:39.687Z,93950.94
2022-08-03T12:43:48.133Z,93947.94
2022-08-03T12:44:49.638Z,93961.00
2022-08-03T12:46:08.429Z,93958.06
2022-08-03T12:47:09.875Z,93952.00
2022-08-03T12:48:12.392Z,93955.91